createdAt,value
2022-08-18T00:01:11.881Z,99378.25
2022-08-18T00:03:56.063Z,99372.59
2022-08-18T00:06:30.006Z,99379.62
2022-08-18T00:08:59.157Z,99373.34
2022-08-18T00:11:27.962Z,99371.00
2022-08-18T00:13:55.328Z,99364.50
2022-08-18T00:16:22.961Z,99365.75
2022-08-18T00:18:50.399Z,99370.97
2022-08-18T00:21:18.606Z,99368.25
2022-08-18T00:23:46.233Z,99355.00
2022-08-18T00:26:13.817Z,99369.03
2022-08-18T00:28:41.135Z,99366.91
2022-08-18T00:31:08.730Z,99364.84
2022-08-18T00:33:36.075Z,99365.22
2022-08-18T00:36:03.830Z,99362.38
2022-08-18T00:38:31.538Z,99367.16
2022-08-18T00:40:58.968Z,99358.78
2022-08-18T00:43:48.092Z,99370.25
2022-08-18T00:46:25.589Z,99366.31
2022-08-18T00:48:52.935Z,99367.06
2022-08-18T00:51:28.117Z,99372.47
2022-08-18T00:54:07.216Z,99381.09
2022-08-18T00:56:39.794Z,99376.94
2022-08-18T00:59:12.385Z,99374.06
2022-08-18T01:01:41.273Z,99380.19
2022-08-18T01:04:12.931Z,99376.97
2022-08-18T01:06:52.578Z,99372.84
2022-08-18T01:09:20.027Z,99378.91
2022-08-18T01:11:47.664Z,99382.69
2022-08-18T01:14:18.423Z,99388.69
2022-08-18T01:17:06.041Z,99385.97
2022-08-18T01:19:52.201Z,99389.03
2022-08-18T01:22:47.552Z,99385.81
2022-08-18T01:25:36.586Z,99388.00
2022-08-18T01:28:05.011Z,99394.06
2022-08-18T01:30:45.689Z,99407.66
2022-08-18T01:33:13.049Z,99401.47
2022-08-18T01:35:41.926Z,99395.47
2022-08-18T01:38:09.642Z,99395.69
2022-08-18T01:41:17.375Z,99396.25
2022-08-18T01:43:24.922Z,99398.16
2022-08-18T01:45:52.487Z,99392.03
2022-08-18T01:48:19.872Z,99396.47
2022-08-18T01:50:49.324Z,99403.88
2022-08-18T01:53:18.315Z,99397.41
2022-08-18T01:55:45.672Z,99403.88
2022-08-18T01:58:13.340Z,99411.19
2022-08-18T02:00:42.105Z,99405.97
2022-08-18T02:03:11.623Z,99397.16
2022-08-18T02:05:43.927Z,99398.41
2022-08-18T02:08:12.566Z,99396.28
2022-08-18T02:10:40.080Z,99396.66
2022-08-18T02:13:07.969Z,99391.94
2022-08-18T02:15:35.964Z,99391.94
2022-08-18T02:18:03.296Z,99392.88
2022-08-18T02:20:30.658Z,99393.44
2022-08-18T02:23:00.864Z,99405.87
2022-08-18T02:25:28.181Z,99399.22
2022-08-18T02:27:56.715Z,99393.56
2022-08-18T02:30:24.315Z,99402.56
2022-08-18T02:32:51.628Z,99408.91
2022-08-18T02:35:19.033Z,99409.25
2022-08-18T02:37:48.172Z,99407.19
2022-08-18T02:40:17.032Z,99410.66
2022-08-18T02:42:45.457Z,99406.69
2022-08-18T02:45:14.313Z,99404.63
2022-08-18T02:47:44.261Z,99405.53
2022-08-18T02:50:12.909Z,99413.91
2022-08-18T02:52:41.290Z,99421.13
2022-08-18T02:55:09.608Z,99410.50
2022-08-18T02:57:38.933Z,99413.03
2022-08-18T03:00:07.000Z,99411.81
2022-08-18T03:02:34.396Z,99421.28
2022-08-18T03:05:01.744Z,99425.28
2022-08-18T03:07:29.337Z,99429.09
2022-08-18T03:09:56.752Z,99426.22
2022-08-18T03:12:24.939Z,99424.88
2022-08-18T03:14:52.557Z,99427.34
2022-08-18T03:17:19.886Z,99429.72
2022-08-18T03:19:47.854Z,99434.19
2022-08-18T03:22:28.257Z,99431.91
2022-08-18T03:24:57.241Z,99438.16
2022-08-18T03:27:25.129Z,99434.75
2022-08-18T03:29:52.462Z,99425.72
2022-08-18T03:32:19.818Z,99423.66
2022-08-18T03:34:47.405Z,99428.28
2022-08-18T03:37:15.985Z,99427.16
2022-08-18T03:39:43.538Z,99426.12
2022-08-18T03:42:11.182Z,99418.22
2022-08-18T03:44:38.540Z,99425.06
2022-08-18T03:47:10.247Z,99419.81
2022-08-18T03:49:38.598Z,99434.38
2022-08-18T03:52:09.456Z,99431.78
2022-08-18T03:54:38.834Z,99422.41
2022-08-18T03:57:10.979Z,99418.12
2022-08-18T03:59:41.507Z,99420.97
2022-08-18T04:02:10.611Z,99432.06
2022-08-18T04:04:38.329Z,99430.16
2022-08-18T04:07:11.916Z,99426.59
2022-08-18T04:09:39.556Z,99438.03
2022-08-18T04:12:16.256Z,99420.88
2022-08-18T04:14:48.216Z,99423.53
2022-08-18T04:17:26.238Z,99436.06
2022-08-18T04:19:55.053Z,99424.41
2022-08-18T04:22:23.107Z,99426.72
2022-08-18T04:24:50.938Z,99430.19
2022-08-18T04:27:20.369Z,99423.66
2022-08-18T04:29:47.984Z,99420.06
2022-08-18T04:32:15.354Z,99421.50
2022-08-18T04:34:42.944Z,99432.88
2022-08-18T04:37:10.900Z,99422.09
2022-08-18T04:39:38.345Z,99422.56
2022-08-18T04:42:06.202Z,99422.84
2022-08-18T04:44:35.298Z,99419.44
2022-08-18T04:47:02.674Z,99435.84
2022-08-18T04:49:31.963Z,99433.78
2022-08-18T04:52:30.982Z,99443.28
2022-08-18T04:55:06.412Z,99430.81
2022-08-18T04:57:35.157Z,99435.19
2022-08-18T05:00:06.243Z,99438.88
2022-08-18T05:02:34.980Z,99427.13
2022-08-18T05:05:03.842Z,99423.16
2022-08-18T05:07:31.210Z,99434.72
2022-08-18T05:09:59.565Z,99426.25
2022-08-18T05:12:27.081Z,99422.06
2022-08-18T05:14:56.987Z,99417.09
2022-08-18T05:17:28.870Z,99415.72
2022-08-18T05:20:01.509Z,99417.47
2022-08-18T05:22:39.756Z,99424.56
2022-08-18T05:25:09.228Z,99424.00
2022-08-18T05:27:38.886Z,99424.41
2022-08-18T05:30:07.495Z,99432.09
2022-08-18T05:32:48.624Z,99434.84
2022-08-18T05:35:25.681Z,99440.25
2022-08-18T05:38:08.504Z,99431.56
2022-08-18T05:40:36.405Z,99435.09
2022-08-18T05:43:04.883Z,99431.75
2022-08-18T05:45:34.623Z,99437.19
2022-08-18T05:48:02.433Z,99438.69
2022-08-18T05:50:32.595Z,99435.78
2022-08-18T05:53:13.959Z,99435.50
2022-08-18T05:56:03.032Z,99434.38
2022-08-18T05:58:33.785Z,99434.75
2022-08-18T06:01:13.375Z,99436.06
2022-08-18T06:03:54.364Z,99431.19
2022-08-18T06:06:29.500Z,99433.53
2022-08-18T06:09:24.409Z,99441.41
2022-08-18T06:11:54.426Z,99436.69
2022-08-18T06:14:22.586Z,99439.63
2022-08-18T06:16:56.268Z,99441.47
2022-08-18T06:19:34.142Z,99445.69
2022-08-18T06:22:07.456Z,99451.78
2022-08-18T06:25:01.445Z,99445.78
2022-08-18T06:27:45.465Z,99437.53
2022-08-18T06:30:19.814Z,99448.19
2022-08-18T06:32:56.796Z,99443.81
2022-08-18T06:35:38.192Z,99440.00
2022-08-18T06:38:36.425Z,99441.38
2022-08-18T06:41:40.746Z,99447.06
2022-08-18T06:44:20.172Z,99436.91
2022-08-18T06:46:53.526Z,99440.75
2022-08-18T06:49:28.798Z,99447.84
2022-08-18T06:51:56.469Z,99442.31
2022-08-18T06:54:29.309Z,99437.28
2022-08-18T06:56:58.115Z,99429.72
2022-08-18T06:59:29.043Z,99425.84
2022-08-18T07:02:00.593Z,99431.34
2022-08-18T07:04:59.598Z,99427.97
2022-08-18T07:07:39.667Z,99417.41
2022-08-18T07:10:29.015Z,99425.47
2022-08-18T07:13:18.505Z,99429.94
2022-08-18T07:15:48.186Z,99432.94
2022-08-18T07:18:22.919Z,99421.34
2022-08-18T07:20:54.206Z,99428.00
2022-08-18T07:23:34.727Z,99419.84
2022-08-18T07:26:06.643Z,99427.16
2022-08-18T07:28:38.091Z,99422.25
2022-08-18T07:31:17.607Z,99414.03
2022-08-18T07:33:56.803Z,99415.31
2022-08-18T07:36:29.235Z,99416.13
2022-08-18T07:39:03.815Z,99406.50
2022-08-18T07:41:41.548Z,99407.66
2022-08-18T07:44:33.226Z,99407.94
2022-08-18T07:47:05.083Z,99424.59
2022-08-18T07:49:35.400Z,99408.63
2022-08-18T07:52:44.285Z,99430.16
2022-08-18T07:55:19.150Z,99429.72
2022-08-18T07:57:57.599Z,99432.44
2022-08-18T08:00:59.192Z,99444.37
2022-08-18T08:03:46.219Z,99441.97
2022-08-18T08:06:39.383Z,99445.78
2022-08-18T08:09:11.025Z,99447.75
2022-08-18T08:12:25.376Z,99452.94
2022-08-18T08:15:07.120Z,99453.88
2022-08-18T08:17:39.465Z,99456.44
2022-08-18T08:20:25.484Z,99468.09
2022-08-18T08:23:27.413Z,99462.81
2022-08-18T08:26:19.826Z,99459.78
2022-08-18T08:29:06.287Z,99468.03
2022-08-18T08:31:42.856Z,99460.03
2022-08-18T08:34:15.607Z,99455.81
2022-08-18T08:36:45.957Z,99445.50
2022-08-18T08:39:19.348Z,99465.25
2022-08-18T08:41:52.203Z,99457.25
2022-08-18T08:44:58.142Z,99448.75
2022-08-18T08:47:34.947Z,99440.56
2022-08-18T08:50:06.024Z,99439.38
2022-08-18T08:52:57.365Z,99441.03
2022-08-18T08:55:34.681Z,99431.00
2022-08-18T08:58:08.134Z,99439.75
2022-08-18T09:00:36.895Z,99423.00
2022-08-18T09:03:13.517Z,99427.06
2022-08-18T09:05:59.486Z,99420.28
2022-08-18T09:08:34.123Z,99426.25
2022-08-18T09:11:10.307Z,99423.50
2022-08-18T09:13:53.259Z,99424.72
2022-08-18T09:16:51.798Z,99416.88
2022-08-18T09:19:47.429Z,99420.56
2022-08-18T09:22:36.844Z,99412.22
2022-08-18T09:25:11.212Z,99417.75
2022-08-18T09:28:09.310Z,99420.16
2022-08-18T09:31:08.688Z,99421.28
2022-08-18T09:33:45.802Z,99426.06
2022-08-18T09:36:28.371Z,99419.38
2022-08-18T09:42:11.516Z,99404.56
2022-08-18T09:44:48.062Z,99397.38
2022-08-18T09:47:21.883Z,99394.19
2022-08-18T09:49:53.474Z,99384.69
2022-08-18T09:55:18.540Z,99365.38
2022-08-18T09:57:47.900Z,99361.78
2022-08-18T10:00:28.280Z,99364.84
2022-08-18T10:02:56.243Z,99357.03
2022-08-18T10:05:29.684Z,99354.91
2022-08-18T10:08:06.798Z,99356.78
2022-08-18T10:11:01.448Z,99356.78
2022-08-18T10:13:29.689Z,99351.72
2022-08-18T10:15:59.135Z,99360.16
2022-08-18T10:19:08.172Z,99359.38
2022-08-18T10:22:00.662Z,99351.38
2022-08-18T10:25:20.840Z,99358.00
2022-08-18T10:27:52.368Z,99344.81
2022-08-18T10:30:34.523Z,99355.44
2022-08-18T10:33:18.038Z,99354.94
2022-08-18T10:36:01.030Z,99345.44
2022-08-18T10:38:49.301Z,99342.31
2022-08-18T10:41:24.465Z,99338.28
2022-08-18T10:43:57.759Z,99346.03
2022-08-18T10:46:42.513Z,99338.09
2022-08-18T10:49:13.994Z,99343.47
2022-08-18T10:52:01.181Z,99338.72
2022-08-18T10:55:06.905Z,99330.22
2022-08-18T10:58:00.482Z,99327.84
2022-08-18T11:00:41.154Z,99337.31
2022-08-18T11:03:50.088Z,99332.16
2022-08-18T11:06:18.238Z,99334.50
2022-08-18T11:08:53.464Z,99331.84
2022-08-18T11:11:34.430Z,99327.09
2022-08-18T11:14:27.916Z,99329.16
2022-08-18T11:17:03.981Z,99324.47
2022-08-18T11:19:42.093Z,99325.38
2022-08-18T11:22:32.994Z,99323.63
2022-08-18T11:25:05.592Z,99318.03
2022-08-18T11:27:45.812Z,99314.03
2022-08-18T11:30:14.468Z,99307.16
2022-08-18T11:32:51.640Z,99305.84
2022-08-18T11:35:26.012Z,99294.94
2022-08-18T11:38:03.797Z,99291.81
2022-08-18T11:43:40.716Z,99275.91
2022-08-18T11:46:14.399Z,99280.91
2022-08-18T11:48:51.936Z,99286.09
2022-08-18T11:51:29.405Z,99287.34
2022-08-18T11:54:13.921Z,99276.09
2022-08-18T11:56:41.555Z,99270.88
2022-08-18T11:59:52.562Z,99277.25
2022-08-18T12:02:21.138Z,99266.81
2022-08-18T12:04:57.697Z,99270.16
2022-08-18T12:07:32.058Z,99274.63
2022-08-18T12:10:16.463Z,99264.41
2022-08-18T12:12:51.946Z,99255.63
2022-08-18T12:18:07.316Z,99245.91
2022-08-18T12:20:34.921Z,99242.50
2022-08-18T12:23:02.306Z,99234.84
2022-08-18T12:25:29.730Z,99230.66
2022-08-18T12:27:58.379Z,99230.38
2022-08-18T12:33:13.744Z,99218.31
2022-08-18T12:35:42.150Z,99214.94
2022-08-18T12:38:13.739Z,99223.16
2022-08-18T12:40:41.966Z,99218.13
2022-08-18T12:43:09.562Z,99226.47
2022-08-18T12:45:38.485Z,99224.78
2022-08-18T12:48:08.056Z,99226.09
2022-08-18T12:50:49.992Z,99232.44
2022-08-18T12:53:30.254Z,99234.53
2022-08-18T12:56:21.940Z,99241.81
2022-08-18T12:58:49.884Z,99249.78
2022-08-18T13:01:19.445Z,99244.97
2022-08-18T13:04:10.617Z,99249.03
2022-08-18T13:06:37.385Z,99247.63
2022-08-18T13:09:16.514Z,99262.03
2022-08-18T13:11:55.830Z,99254.25
2022-08-18T13:14:28.439Z,99250.59
2022-08-18T13:16:56.060Z,99243.69
2022-08-18T13:19:24.453Z,99247.81
2022-08-18T13:22:00.492Z,99245.06
2022-08-18T13:24:27.823Z,99250.69
2022-08-18T13:26:56.143Z,99251.34
2022-08-18T13:29:24.705Z,99250.69
2022-08-18T13:31:57.747Z,99258.81
2022-08-18T13:34:27.640Z,99253.63
2022-08-18T13:36:57.726Z,99247.06
2022-08-18T13:39:25.719Z,99245.84
2022-08-18T13:42:26.676Z,99241.34
2022-08-18T13:44:53.007Z,99242.75
2022-08-18T13:47:22.355Z,99249.19
2022-08-18T13:49:57.986Z,99248.63
2022-08-18T13:52:35.657Z,99247.06
2022-08-18T13:55:11.838Z,99242.19
2022-08-18T13:57:48.106Z,99240.03
2022-08-18T14:00:20.498Z,99242.72
2022-08-18T14:03:03.323Z,99230.84
2022-08-18T14:05:36.832Z,99244.06
2022-08-18T14:08:19.909Z,99242.66
2022-08-18T14:10:49.820Z,99247.59
2022-08-18T14:13:20.631Z,99246.34
2022-08-18T14:15:54.703Z,99243.81
2022-08-18T14:18:29.254Z,99253.50
2022-08-18T14:21:17.136Z,99252.06
2022-08-18T14:24:10.290Z,99253.87
2022-08-18T14:26:50.025Z,99254.31
2022-08-18T14:29:46.579Z,99256.66
2022-08-18T14:32:07.230Z,99259.69
2022-08-18T14:34:34.960Z,99266.91
2022-08-18T14:37:03.389Z,99258.72
2022-08-18T14:39:31.081Z,99260.53
2022-08-18T14:41:58.548Z,99261.03
2022-08-18T14:44:31.693Z,99256.44
2022-08-18T14:47:00.135Z,99259.97
2022-08-18T14:49:29.211Z,99258.47
2022-08-18T14:52:01.106Z,99256.19
2022-08-18T14:54:31.182Z,99250.75
2022-08-18T14:57:01.689Z,99242.00
2022-08-18T14:59:30.994Z,99252.84
2022-08-18T15:02:07.585Z,99241.97
2022-08-18T15:04:55.986Z,99238.69
2022-08-18T15:07:26.136Z,99239.50
2022-08-18T15:10:14.372Z,99235.69
2022-08-18T15:12:41.910Z,99233.19
2022-08-18T15:15:16.765Z,99233.03
2022-08-18T15:17:51.480Z,99239.19
2022-08-18T15:20:29.450Z,99233.19
2022-08-18T15:23:24.688Z,99228.50
2022-08-18T15:25:56.398Z,99244.47
2022-08-18T15:28:25.307Z,99238.75
2022-08-18T15:31:16.634Z,99240.91
2022-08-18T15:33:40.853Z,99250.00
2022-08-18T15:36:10.143Z,99248.06
2022-08-18T15:38:38.333Z,99244.88
2022-08-18T15:41:09.435Z,99249.59
2022-08-18T15:43:39.929Z,99251.50
2022-08-18T15:46:14.019Z,99254.66
2022-08-18T15:48:44.291Z,99243.62
2022-08-18T15:51:12.432Z,99237.63
2022-08-18T15:53:44.974Z,99245.31
2022-08-18T15:56:15.821Z,99231.97
2022-08-18T15:58:46.076Z,99229.56
2022-08-18T16:01:29.816Z,99233.66
2022-08-18T16:03:58.450Z,99230.75
2022-08-18T16:06:27.795Z,99227.50
2022-08-18T16:09:01.005Z,99229.13
2022-08-18T16:11:29.837Z,99229.56
2022-08-18T16:14:01.190Z,99223.16
2022-08-18T16:16:36.083Z,99225.22
2022-08-18T16:19:06.990Z,99227.62
2022-08-18T16:21:38.394Z,99231.59
2022-08-18T16:24:06.867Z,99224.91
2022-08-18T16:26:34.187Z,99223.87
2022-08-18T16:29:02.139Z,99224.09
2022-08-18T16:31:29.575Z,99229.59
2022-08-18T16:33:57.825Z,99220.81
2022-08-18T16:36:25.676Z,99224.56
2022-08-18T16:38:54.410Z,99226.53
2022-08-18T16:41:26.782Z,99221.94
2022-08-18T16:43:54.628Z,99230.25
2022-08-18T16:46:25.966Z,99218.75
2022-08-18T16:48:57.815Z,99226.75
2022-08-18T16:51:26.687Z,99224.56
2022-08-18T16:53:54.560Z,99209.34
2022-08-18T16:56:25.494Z,99210.38
2022-08-18T16:59:11.525Z,99209.56
2022-08-18T17:02:03.070Z,99209.22
2022-08-18T17:04:33.712Z,99206.06
2022-08-18T17:07:03.531Z,99199.66
2022-08-18T17:09:31.027Z,99190.19
2022-08-18T17:11:58.432Z,99192.75
2022-08-18T17:14:28.471Z,99192.25
2022-08-18T17:16:58.406Z,99190.75
2022-08-18T17:19:30.106Z,99193.63
2022-08-18T17:21:57.667Z,99172.88
2022-08-18T17:24:32.084Z,99178.34
2022-08-18T17:27:26.265Z,99174.62
2022-08-18T17:30:00.448Z,99158.81
2022-08-18T17:32:41.977Z,99147.97
2022-08-18T17:35:15.491Z,99136.81
2022-08-18T17:37:52.212Z,99130.91
2022-08-18T17:40:47.914Z,99149.53
2022-08-18T17:43:22.550Z,99143.94
2022-08-18T17:46:05.797Z,99153.41
2022-08-18T17:48:47.551Z,99156.41
2022-08-18T17:51:34.676Z,99162.00
2022-08-18T17:54:19.108Z,99161.31
2022-08-18T17:56:52.674Z,99173.09
2022-08-18T17:59:42.840Z,99176.44
2022-08-18T18:02:28.845Z,99176.41
2022-08-18T18:05:02.204Z,99166.59
2022-08-18T18:07:40.346Z,99177.81
2022-08-18T18:10:14.631Z,99189.97
2022-08-18T18:12:42.095Z,99195.81
2022-08-18T18:15:12.599Z,99195.53
2022-08-18T18:17:41.943Z,99199.47
2022-08-18T18:20:15.341Z,99204.75
2022-08-18T18:22:44.432Z,99204.72
2022-08-18T18:25:13.711Z,99206.94
2022-08-18T18:27:43.002Z,99211.28
2022-08-18T18:30:27.817Z,99208.97
2022-08-18T18:33:00.699Z,99216.34
2022-08-18T18:35:31.161Z,99218.75
2022-08-18T18:38:05.284Z,99228.38
2022-08-18T18:40:41.384Z,99217.88
2022-08-18T18:43:34.010Z,99218.25
2022-08-18T18:46:23.321Z,99222.38
2022-08-18T18:48:52.241Z,99222.22
2022-08-18T18:51:33.704Z,99219.72
2022-08-18T18:54:28.332Z,99223.03
2022-08-18T18:56:56.802Z,99222.16
2022-08-18T19:00:09.370Z,99227.03
2022-08-18T19:02:47.703Z,99225.06
2022-08-18T19:05:44.689Z,99216.87
2022-08-18T19:08:19.103Z,99218.72
2022-08-18T19:10:56.770Z,99215.25
2022-08-18T19:13:35.052Z,99218.94
2022-08-18T19:16:28.875Z,99219.56
2022-08-18T19:19:38.465Z,99215.00
2022-08-18T19:22:06.635Z,99222.34
2022-08-18T19:24:40.407Z,99222.13
2022-08-18T19:27:18.488Z,99214.75
2022-08-18T19:29:52.088Z,99211.09
2022-08-18T19:32:24.371Z,99207.81
2022-08-18T19:34:55.666Z,99212.53
2022-08-18T19:37:31.278Z,99209.13
2022-08-18T19:40:11.979Z,99214.94
2022-08-18T19:42:44.480Z,99217.47
2022-08-18T19:45:25.382Z,99214.38
2022-08-18T19:48:03.061Z,99220.28
2022-08-18T19:50:55.561Z,99213.22
2022-08-18T19:53:52.569Z,99220.72
2022-08-18T19:56:48.071Z,99226.34
2022-08-18T19:59:50.932Z,99223.94
2022-08-18T20:02:55.768Z,99220.00
2022-08-18T20:05:45.271Z,99230.59
2022-08-18T20:08:15.356Z,99237.34
2022-08-18T20:11:12.997Z,99234.41
2022-08-18T20:13:43.431Z,99231.00
2022-08-18T20:16:15.437Z,99231.16
2022-08-18T20:18:48.961Z,99223.81
2022-08-18T20:21:22.511Z,99230.28
2022-08-18T20:24:07.066Z,99229.44
2022-08-18T20:26:34.553Z,99227.88
2022-08-18T20:29:02.258Z,99227.47
2022-08-18T20:31:50.633Z,99229.88
2022-08-18T20:34:22.433Z,99228.16
2022-08-18T20:36:51.901Z,99229.00
2022-08-18T20:39:39.837Z,99232.53
2022-08-18T20:42:20.499Z,99233.97
2022-08-18T20:44:48.026Z,99234.69
2022-08-18T20:47:30.546Z,99225.88
2022-08-18T20:50:13.184Z,99235.44
2022-08-18T20:53:18.197Z,99234.59
2022-08-18T20:56:31.439Z,99237.31
2022-08-18T20:58:59.054Z,99249.16
2022-08-18T21:01:29.193Z,99253.63
2022-08-18T21:04:00.037Z,99271.53
2022-08-18T21:06:33.458Z,99275.63
2022-08-18T21:09:00.946Z,99275.00
2022-08-18T21:11:41.222Z,99278.78
2022-08-18T21:14:09.410Z,99282.59
2022-08-18T21:16:44.892Z,99282.91
2022-08-18T21:19:24.717Z,99287.03
2022-08-18T21:21:56.812Z,99290.13
2022-08-18T21:24:31.674Z,99284.97
2022-08-18T21:27:04.301Z,99294.31
2022-08-18T21:29:49.046Z,99293.50
2022-08-18T21:32:37.329Z,99297.84
2022-08-18T21:35:21.587Z,99302.88
2022-08-18T21:38:15.540Z,99307.34
2022-08-18T21:40:46.351Z,99318.59
2022-08-18T21:43:33.219Z,99324.38
2022-08-18T21:46:01.549Z,99319.12
2022-08-18T21:48:29.791Z,99321.13
2022-08-18T21:51:00.474Z,99320.66
2022-08-18T21:53:30.936Z,99328.31
2022-08-18T21:55:59.524Z,99329.84
2022-08-18T21:58:38.083Z,99321.78
2022-08-18T22:01:20.908Z,99333.66
2022-08-18T22:03:51.567Z,99337.03
2022-08-18T22:06:28.143Z,99334.50
2022-08-18T22:08:57.211Z,99337.03
2022-08-18T22:12:00.868Z,99339.00
2022-08-18T22:14:54.652Z,99345.53
2022-08-18T22:17:59.739Z,99354.59
2022-08-18T22:20:35.815Z,99356.38
2022-08-18T22:23:30.758Z,99355.44
2022-08-18T22:26:22.800Z,99362.06
2022-08-18T22:28:54.804Z,99361.06
2022-08-18T22:31:24.667Z,99367.69
2022-08-18T22:33:53.500Z,99368.41
2022-08-18T22:36:26.431Z,99360.59
2022-08-18T22:38:54.748Z,99360.00
2022-08-18T22:41:22.221Z,99364.47
2022-08-18T22:43:55.190Z,99368.94
2022-08-18T22:46:24.893Z,99370.16
2022-08-18T22:48:53.013Z,99366.03
2022-08-18T22:51:26.144Z,99369.91
2022-08-18T22:53:55.759Z,99367.13
2022-08-18T22:56:34.396Z,99373.34
2022-08-18T22:59:16.023Z,99370.06
2022-08-18T23:01:48.835Z,99371.47
2022-08-18T23:04:19.019Z,99365.97
2022-08-18T23:06:51.922Z,99364.91
2022-08-18T23:09:22.049Z,99363.28
2022-08-18T23:11:49.799Z,99351.09
2022-08-18T23:14:17.629Z,99358.88
2022-08-18T23:16:45.359Z,99339.09
2022-08-18T23:19:14.737Z,99338.63
2022-08-18T23:21:42.444Z,99337.59
2022-08-18T23:24:12.123Z,99339.19
2022-08-18T23:26:40.329Z,99331.31
2022-08-18T23:29:11.417Z,99334.12
2022-08-18T23:31:40.951Z,99324.31
2022-08-18T23:34:09.254Z,99329.50
2022-08-18T23:36:41.311Z,99322.56
2022-08-18T23:39:10.082Z,99323.41
2022-08-18T23:41:38.261Z,99327.66
2022-08-18T23:44:06.588Z,99323.53
2022-08-18T23:46:34.658Z,99316.75
2022-08-18T23:49:04.475Z,99313.75
2022-08-18T23:51:44.293Z,99319.25
2022-08-18T23:54:17.740Z,99320.06
2022-08-18T23:56:45.802Z,99329.34
2022-08-18T23:59:14.524Z,99332.63
